createdAt,value
2022-09-24T00:01:23.430Z,100.00
2022-09-24T00:03:52.551Z,100.00
2022-09-24T00:06:19.844Z,100.00
2022-09-24T00:08:49.722Z,100.00
2022-09-24T00:11:19.870Z,100.00
2022-09-24T00:13:47.531Z,100.00
2022-09-24T00:16:15.801Z,100.00
2022-09-24T00:18:43.095Z,100.00
2022-09-24T00:21:15.217Z,100.00
2022-09-24T00:23:42.090Z,100.00
2022-09-24T00:26:30.144Z,100.00
2022-09-24T00:28:57.354Z,100.00
2022-09-24T00:31:24.881Z,100.00
2022-09-24T00:33:52.318Z,100.00
2022-09-24T00:36:20.073Z,100.00
2022-09-24T00:38:50.967Z,100.00
2022-09-24T00:41:20.387Z,100.00
2022-09-24T00:43:48.299Z,100.00
2022-09-24T00:46:20.285Z,100.00
2022-09-24T00:48:49.188Z,100.00
2022-09-24T00:51:18.629Z,100.00
2022-09-24T00:53:46.331Z,100.00
2022-09-24T00:56:16.975Z,100.00
2022-09-24T00:58:50.258Z,100.00
2022-09-24T01:01:19.275Z,100.00
2022-09-24T01:03:48.424Z,100.00
2022-09-24T01:06:15.252Z,100.00
2022-09-24T01:08:42.381Z,100.00
2022-09-24T01:11:30.454Z,100.00
2022-09-24T01:14:15.291Z,100.00
2022-09-24T01:16:48.004Z,100.00
2022-09-24T01:19:38.264Z,100.00
2022-09-24T01:22:14.580Z,100.00
2022-09-24T01:25:06.140Z,100.00
2022-09-24T01:27:49.656Z,100.00
2022-09-24T01:30:18.079Z,100.00
2022-09-24T01:32:49.663Z,100.00
2022-09-24T01:35:22.296Z,100.00
2022-09-24T01:37:54.084Z,100.00
2022-09-24T01:40:24.397Z,100.00
2022-09-24T01:42:53.053Z,100.00
2022-09-24T01:45:21.673Z,100.00
2022-09-24T01:47:48.750Z,100.00
2022-09-24T01:50:18.403Z,100.00
2022-09-24T01:52:50.980Z,100.00
2022-09-24T01:55:21.878Z,100.00
2022-09-24T01:57:52.601Z,100.00
2022-09-24T02:00:22.433Z,100.00
2022-09-24T02:02:55.506Z,100.00
2022-09-24T02:05:28.866Z,100.00
2022-09-24T02:08:03.087Z,100.00
2022-09-24T02:10:35.181Z,100.00
2022-09-24T02:13:06.006Z,100.00
2022-09-24T02:15:37.421Z,100.00
2022-09-24T02:18:08.009Z,100.00
2022-09-24T02:20:38.697Z,100.00
2022-09-24T02:23:08.179Z,100.00
2022-09-24T02:25:37.813Z,100.00
2022-09-24T02:28:04.546Z,100.00
2022-09-24T02:30:37.984Z,100.00
2022-09-24T02:33:27.839Z,100.00
2022-09-24T02:35:54.936Z,100.00
2022-09-24T02:38:22.720Z,100.00
2022-09-24T02:40:50.828Z,100.00
2022-09-24T02:43:17.644Z,100.00
2022-09-24T02:45:45.792Z,100.00
2022-09-24T02:48:12.483Z,100.00
2022-09-24T02:50:39.208Z,100.00
2022-09-24T02:53:05.980Z,100.00
2022-09-24T02:55:32.808Z,100.00
2022-09-24T02:58:00.240Z,100.00
2022-09-24T03:00:28.942Z,100.00
2022-09-24T03:02:57.246Z,100.00
2022-09-24T03:05:24.106Z,100.00
2022-09-24T03:07:51.159Z,100.00
2022-09-24T03:10:17.956Z,100.00
2022-09-24T03:12:44.765Z,100.00
2022-09-24T03:15:12.248Z,100.00
2022-09-24T03:17:39.199Z,100.00
2022-09-24T03:20:08.464Z,100.00
2022-09-24T03:22:35.234Z,100.00
2022-09-24T03:25:03.278Z,100.00
2022-09-24T03:27:30.048Z,100.00
2022-09-24T03:30:15.790Z,100.00
2022-09-24T03:32:42.873Z,100.00
2022-09-24T03:35:12.012Z,100.00
2022-09-24T03:37:38.780Z,100.00
2022-09-24T03:40:08.155Z,100.00
2022-09-24T03:42:34.966Z,100.00
2022-09-24T03:45:01.904Z,100.00
2022-09-24T03:47:29.445Z,100.00
2022-09-24T03:49:56.293Z,100.00
2022-09-24T03:52:25.306Z,100.00
2022-09-24T03:54:52.422Z,100.00
2022-09-24T03:57:19.152Z,100.00
2022-09-24T03:59:46.945Z,100.00
2022-09-24T04:02:13.731Z,100.00
2022-09-24T04:04:40.483Z,100.00
2022-09-24T04:07:07.265Z,100.00
2022-09-24T04:09:35.368Z,100.00
2022-09-24T04:12:02.546Z,100.00
2022-09-24T04:14:29.627Z,100.00
2022-09-24T04:16:56.488Z,100.00
2022-09-24T04:19:23.340Z,100.00
2022-09-24T04:21:50.133Z,100.00
2022-09-24T04:24:16.995Z,100.00
2022-09-24T04:26:45.249Z,100.00
2022-09-24T04:29:13.806Z,100.00
2022-09-24T04:31:40.757Z,100.00
2022-09-24T04:34:08.823Z,100.00
2022-09-24T04:36:35.586Z,100.00
2022-09-24T04:39:03.881Z,100.00
2022-09-24T04:41:30.681Z,100.00
2022-09-24T04:43:59.417Z,100.00
2022-09-24T04:46:26.285Z,100.00
2022-09-24T04:48:53.383Z,100.00
2022-09-24T04:51:21.375Z,100.00
2022-09-24T04:53:50.972Z,100.00
2022-09-24T04:56:18.150Z,100.00
2022-09-24T04:58:44.885Z,100.00
2022-09-24T05:01:13.493Z,100.00
2022-09-24T05:03:40.702Z,100.00
2022-09-24T05:06:07.583Z,100.00
2022-09-24T05:08:34.616Z,100.00
2022-09-24T05:11:02.442Z,100.00
2022-09-24T05:13:29.227Z,100.00
2022-09-24T05:15:56.154Z,100.00
2022-09-24T05:18:24.458Z,100.00
2022-09-24T05:20:51.239Z,100.00
2022-09-24T05:23:18.315Z,100.00
2022-09-24T05:26:04.305Z,100.00
2022-09-24T05:28:33.211Z,100.00
2022-09-24T05:31:00.343Z,100.00
2022-09-24T05:33:28.586Z,100.00
2022-09-24T05:35:58.013Z,100.00
2022-09-24T05:38:24.959Z,100.00
2022-09-24T05:40:51.971Z,100.00
2022-09-24T05:43:21.872Z,100.00
2022-09-24T05:45:51.433Z,100.00
2022-09-24T05:48:18.212Z,100.00
2022-09-24T05:50:46.523Z,100.00
2022-09-24T05:53:13.382Z,100.00
2022-09-24T05:55:40.132Z,100.00
2022-09-24T05:58:09.892Z,100.00
2022-09-24T06:00:37.177Z,100.00
2022-09-24T06:03:06.809Z,100.00
2022-09-24T06:05:35.420Z,100.00
2022-09-24T06:08:04.029Z,100.00
2022-09-24T06:10:30.974Z,100.00
2022-09-24T06:12:57.777Z,100.00
2022-09-24T06:15:26.638Z,100.00
2022-09-24T06:17:54.031Z,100.00
2022-09-24T06:20:20.882Z,100.00
2022-09-24T06:22:48.095Z,100.00
2022-09-24T06:25:16.580Z,99.83
2022-09-24T06:27:43.364Z,98.92
2022-09-24T06:30:11.914Z,98.95
2022-09-24T06:32:38.726Z,99.92
2022-09-24T06:35:06.761Z,100.00
2022-09-24T06:37:34.135Z,99.75
2022-09-24T06:40:01.305Z,99.35
2022-09-24T06:42:29.413Z,97.80
2022-09-24T06:44:56.457Z,97.63
2022-09-24T06:47:24.278Z,99.24
2022-09-24T06:49:51.072Z,98.60
2022-09-24T06:52:17.904Z,98.11
2022-09-24T06:54:44.693Z,99.91
2022-09-24T06:57:11.478Z,100.00
2022-09-24T06:59:39.603Z,98.41
2022-09-24T07:02:06.488Z,98.16
2022-09-24T07:04:33.221Z,98.99
2022-09-24T07:07:18.764Z,98.05
2022-09-24T07:09:45.489Z,97.75
2022-09-24T07:12:12.222Z,97.02
2022-09-24T07:14:40.531Z,97.19
2022-09-24T07:17:07.264Z,95.22
2022-09-24T07:19:34.175Z,97.22
2022-09-24T07:22:00.914Z,95.08
2022-09-24T07:24:27.702Z,94.13
2022-09-24T07:26:54.591Z,95.76
2022-09-24T07:29:21.296Z,94.89
2022-09-24T07:31:49.558Z,95.05
2022-09-24T07:34:16.764Z,93.04
2022-09-24T07:36:43.583Z,93.24
2022-09-24T07:39:10.529Z,93.38
2022-09-24T07:41:42.067Z,92.65
2022-09-24T07:44:09.759Z,93.48
2022-09-24T07:46:36.697Z,93.76
2022-09-24T07:49:05.180Z,93.11
2022-09-24T07:51:32.177Z,94.63
2022-09-24T07:53:58.989Z,92.02
2022-09-24T07:56:25.831Z,92.97
2022-09-24T07:58:53.710Z,91.93
2022-09-24T08:01:20.774Z,92.18
2022-09-24T08:03:47.736Z,91.66
2022-09-24T08:06:15.964Z,90.32
2022-09-24T08:08:43.629Z,89.43
2022-09-24T08:11:17.067Z,88.61
2022-09-24T08:13:45.361Z,86.99
2022-09-24T08:16:13.218Z,87.38
2022-09-24T08:18:40.232Z,87.86
2022-09-24T08:21:10.917Z,87.61
2022-09-24T08:23:42.522Z,89.29
2022-09-24T08:26:10.042Z,88.93
2022-09-24T08:28:38.038Z,87.78
2022-09-24T08:31:11.167Z,86.79
2022-09-24T08:33:38.791Z,86.72
2022-09-24T08:36:07.916Z,89.18
2022-09-24T08:38:35.092Z,86.17
2022-09-24T08:41:18.173Z,85.33
2022-09-24T08:43:54.350Z,87.39
2022-09-24T08:46:44.684Z,86.25
2022-09-24T08:49:17.214Z,84.18
2022-09-24T08:51:52.001Z,83.69
2022-09-24T08:54:20.560Z,83.92
2022-09-24T08:56:48.697Z,80.41
2022-09-24T08:59:27.443Z,81.60
2022-09-24T09:02:04.154Z,79.76
2022-09-24T09:04:40.871Z,75.65
2022-09-24T09:07:16.305Z,74.98
2022-09-24T09:09:49.155Z,73.77
2022-09-24T09:12:22.033Z,76.12
2022-09-24T09:14:54.353Z,75.96
2022-09-24T09:17:31.725Z,75.46
2022-09-24T09:20:01.982Z,75.81
2022-09-24T09:22:34.104Z,77.13
2022-09-24T09:25:11.175Z,76.69
2022-09-24T09:27:39.348Z,76.69
2022-09-24T09:30:14.353Z,76.33
2022-09-24T09:32:50.606Z,72.65
2022-09-24T09:35:24.203Z,70.67
2022-09-24T09:37:57.765Z,71.88
2022-09-24T09:40:32.300Z,74.55
2022-09-24T09:43:03.107Z,71.93
2022-09-24T09:45:34.831Z,74.14
2022-09-24T09:48:03.429Z,71.62
2022-09-24T09:50:35.916Z,69.70
2022-09-24T09:53:04.416Z,66.90
2022-09-24T09:55:34.373Z,69.21
2022-09-24T09:58:16.110Z,71.81
2022-09-24T10:00:44.133Z,73.61
2022-09-24T10:03:23.591Z,67.48
2022-09-24T10:05:54.779Z,67.22
2022-09-24T10:08:22.371Z,66.75
2022-09-24T10:10:55.491Z,63.78
2022-09-24T10:13:24.573Z,59.02
2022-09-24T10:15:53.458Z,55.09
2022-09-24T10:18:30.795Z,52.71
2022-09-24T10:21:00.408Z,51.96
2022-09-24T10:23:34.869Z,55.94
2022-09-24T10:26:03.185Z,54.24
2022-09-24T10:28:52.168Z,51.16
2022-09-24T10:31:21.659Z,49.48
2022-09-24T10:33:51.837Z,50.73
2022-09-24T10:36:22.339Z,49.34
2022-09-24T10:38:49.687Z,49.86
2022-09-24T10:41:24.097Z,50.33
2022-09-24T10:43:53.436Z,50.13
2022-09-24T10:46:51.056Z,48.63
2022-09-24T10:49:32.306Z,47.75
2022-09-24T10:52:10.272Z,47.65
2022-09-24T10:54:49.929Z,47.02
2022-09-24T10:57:26.601Z,46.51
2022-09-24T11:00:03.703Z,45.47
2022-09-24T11:03:08.822Z,46.90
2022-09-24T11:05:42.500Z,49.73
2022-09-24T11:08:21.048Z,48.31
2022-09-24T11:11:12.011Z,52.48
2022-09-24T11:13:51.198Z,54.74
2022-09-24T11:16:39.144Z,57.84
2022-09-24T11:19:17.891Z,58.46
2022-09-24T11:22:02.867Z,58.26
2022-09-24T11:24:42.263Z,57.93
2022-09-24T11:27:28.079Z,57.21
2022-09-24T11:30:07.449Z,57.80
2022-09-24T11:32:49.696Z,56.97
2022-09-24T11:35:46.373Z,59.48
2022-09-24T11:38:18.141Z,59.63
2022-09-24T11:40:58.087Z,60.47
2022-09-24T11:43:54.561Z,62.35
2022-09-24T11:46:39.871Z,60.88
2022-09-24T11:49:32.206Z,61.03
2022-09-24T11:52:05.678Z,62.14
2022-09-24T11:54:37.786Z,59.97
2022-09-24T11:57:12.480Z,61.38
2022-09-24T11:59:46.743Z,61.44
2022-09-24T12:02:19.409Z,62.03
2022-09-24T12:04:58.106Z,61.01
2022-09-24T12:07:31.735Z,60.15
2022-09-24T12:10:03.084Z,60.28
2022-09-24T12:12:33.800Z,62.60
2022-09-24T12:15:06.343Z,61.20
2022-09-24T12:17:38.638Z,59.60
2022-09-24T12:20:18.733Z,59.92
2022-09-24T12:22:49.106Z,54.05
2022-09-24T12:25:16.475Z,54.94
2022-09-24T12:27:45.176Z,55.55
2022-09-24T12:30:47.749Z,57.54
2022-09-24T12:33:23.681Z,58.59
2022-09-24T12:36:04.407Z,61.92
2022-09-24T12:38:35.947Z,62.14
2022-09-24T12:41:21.016Z,63.98
2022-09-24T12:43:53.952Z,63.59
2022-09-24T12:46:23.820Z,64.64
2022-09-24T12:48:52.400Z,64.50
2022-09-24T12:51:24.164Z,63.89
2022-09-24T12:53:59.843Z,64.59
2022-09-24T12:56:30.059Z,64.85
2022-09-24T12:58:57.945Z,65.48
2022-09-24T13:01:32.342Z,66.35
2022-09-24T13:04:05.857Z,66.95
2022-09-24T13:06:36.934Z,66.87
2022-09-24T13:09:26.043Z,67.59
2022-09-24T13:12:02.205Z,69.00
2022-09-24T13:14:32.177Z,70.60
2022-09-24T13:16:59.455Z,69.91
2022-09-24T13:19:38.027Z,71.18
2022-09-24T13:22:19.037Z,70.42
2022-09-24T13:24:48.463Z,69.65
2022-09-24T13:27:24.607Z,73.29
2022-09-24T13:30:07.037Z,72.64
2022-09-24T13:32:37.962Z,73.13
2022-09-24T13:35:09.593Z,71.95
2022-09-24T13:37:41.503Z,72.14
2022-09-24T13:40:19.129Z,73.70
2022-09-24T13:42:51.661Z,72.55
2022-09-24T13:45:21.467Z,70.97
2022-09-24T13:47:53.300Z,70.63
2022-09-24T13:50:24.544Z,71.50
2022-09-24T13:52:57.016Z,69.51
2022-09-24T13:55:31.090Z,68.99
2022-09-24T13:57:58.716Z,68.91
2022-09-24T14:00:27.668Z,69.20
2022-09-24T14:03:00.458Z,67.98
2022-09-24T14:05:29.350Z,68.73
2022-09-24T14:08:04.742Z,68.32
2022-09-24T14:10:32.352Z,66.39
2022-09-24T14:13:00.911Z,67.10
2022-09-24T14:15:27.647Z,65.63
2022-09-24T14:17:57.214Z,65.77
2022-09-24T14:20:27.744Z,67.76
2022-09-24T14:22:54.721Z,68.21
2022-09-24T14:25:28.788Z,67.83
2022-09-24T14:27:57.963Z,68.27
2022-09-24T14:30:27.616Z,70.05
2022-09-24T14:32:57.374Z,69.71
2022-09-24T14:35:30.349Z,70.52
2022-09-24T14:38:00.497Z,70.97
2022-09-24T14:40:29.146Z,73.06
2022-09-24T14:42:58.483Z,74.01
2022-09-24T14:45:27.182Z,73.69
2022-09-24T14:48:01.556Z,72.17
2022-09-24T14:50:35.658Z,72.22
2022-09-24T14:53:11.552Z,72.08
2022-09-24T14:55:41.900Z,72.75
2022-09-24T14:58:24.113Z,73.18
2022-09-24T15:00:55.364Z,72.62
2022-09-24T15:03:28.420Z,72.94
2022-09-24T15:06:18.275Z,74.02
2022-09-24T15:08:53.247Z,73.18
2022-09-24T15:11:27.785Z,73.99
2022-09-24T15:13:59.257Z,71.96
2022-09-24T15:16:30.014Z,71.72
2022-09-24T15:19:14.060Z,72.99
2022-09-24T15:21:40.978Z,73.66
2022-09-24T15:24:07.748Z,74.26
2022-09-24T15:26:39.494Z,74.12
2022-09-24T15:29:07.101Z,73.19
2022-09-24T15:31:33.961Z,74.33
2022-09-24T15:34:00.773Z,72.55
2022-09-24T15:36:27.581Z,71.64
2022-09-24T15:39:00.739Z,72.55
2022-09-24T15:41:27.595Z,73.20
2022-09-24T15:43:58.431Z,73.02
2022-09-24T15:46:26.293Z,74.06
2022-09-24T15:48:53.705Z,74.35
2022-09-24T15:51:22.392Z,74.61
2022-09-24T15:53:50.824Z,74.60
2022-09-24T15:56:17.628Z,75.27
2022-09-24T15:58:44.365Z,75.71
2022-09-24T16:01:16.984Z,77.20
2022-09-24T16:03:44.495Z,76.89
2022-09-24T16:06:12.261Z,77.82
2022-09-24T16:08:39.079Z,76.15
2022-09-24T16:11:09.021Z,76.45
2022-09-24T16:13:36.020Z,76.66
2022-09-24T16:16:06.879Z,77.09
2022-09-24T16:18:35.754Z,78.36
2022-09-24T16:21:06.123Z,78.50
2022-09-24T16:23:33.346Z,79.45
2022-09-24T16:26:00.803Z,79.10
2022-09-24T16:28:28.531Z,79.64
2022-09-24T16:30:55.693Z,79.47
2022-09-24T16:33:23.273Z,80.68
2022-09-24T16:35:51.662Z,80.30
2022-09-24T16:38:22.470Z,81.13
2022-09-24T16:40:52.169Z,80.75
2022-09-24T16:43:19.067Z,81.14
2022-09-24T16:45:45.812Z,80.64
2022-09-24T16:48:13.710Z,79.37
2022-09-24T16:50:40.903Z,79.03
2022-09-24T16:53:09.109Z,79.70
2022-09-24T16:55:35.940Z,79.97
2022-09-24T16:58:02.728Z,81.57
2022-09-24T17:00:29.471Z,80.82
2022-09-24T17:02:57.039Z,80.98
2022-09-24T17:05:23.879Z,80.84
2022-09-24T17:07:50.657Z,81.53
2022-09-24T17:10:19.127Z,80.45
2022-09-24T17:12:48.969Z,80.51
2022-09-24T17:15:19.335Z,80.58
2022-09-24T17:17:50.256Z,80.44
2022-09-24T17:20:18.062Z,81.43
2022-09-24T17:22:44.930Z,81.95
2022-09-24T17:25:11.701Z,82.94
2022-09-24T17:27:40.306Z,83.31
2022-09-24T17:30:09.314Z,84.25
2022-09-24T17:32:36.051Z,83.97
2022-09-24T17:35:03.082Z,83.78
2022-09-24T17:37:29.927Z,83.82
2022-09-24T17:39:56.947Z,84.80
2022-09-24T17:42:23.662Z,85.43
2022-09-24T17:44:51.846Z,84.88
2022-09-24T17:47:18.575Z,85.18
2022-09-24T17:49:45.683Z,85.81
2022-09-24T17:52:13.579Z,84.84
2022-09-24T17:54:40.398Z,84.87
2022-09-24T17:57:07.135Z,84.47
2022-09-24T17:59:33.892Z,84.47
2022-09-24T18:02:02.256Z,85.12
2022-09-24T18:04:31.389Z,85.63
2022-09-24T18:06:58.206Z,85.76
2022-09-24T18:09:25.141Z,86.22
2022-09-24T18:11:52.850Z,86.68
2022-09-24T18:14:21.290Z,86.78
2022-09-24T18:16:51.279Z,86.37
2022-09-24T18:19:19.730Z,86.30
2022-09-24T18:21:49.317Z,85.77
2022-09-24T18:24:16.734Z,84.99
2022-09-24T18:26:43.964Z,85.60
2022-09-24T18:29:13.782Z,85.73
2022-09-24T18:31:41.460Z,85.51
2022-09-24T18:34:11.174Z,85.89
2022-09-24T18:36:40.592Z,86.08
2022-09-24T18:39:12.131Z,86.37
2022-09-24T18:41:40.243Z,85.71
2022-09-24T18:44:07.178Z,85.55
2022-09-24T18:46:35.190Z,85.11
2022-09-24T18:49:02.571Z,85.16
2022-09-24T18:51:31.744Z,85.23
2022-09-24T18:54:01.437Z,85.47
2022-09-24T18:56:28.305Z,86.13
2022-09-24T18:58:56.515Z,86.27
2022-09-24T19:01:23.734Z,86.23
2022-09-24T19:03:50.875Z,86.62
2022-09-24T19:06:17.749Z,87.67
2022-09-24T19:08:44.587Z,87.92
2022-09-24T19:11:14.176Z,88.20
2022-09-24T19:13:42.987Z,88.77
2022-09-24T19:16:12.104Z,89.33
2022-09-24T19:18:39.553Z,89.54
2022-09-24T19:21:07.976Z,89.27
2022-09-24T19:23:38.197Z,89.88
2022-09-24T19:26:06.571Z,89.96
2022-09-24T19:28:35.870Z,89.46
2022-09-24T19:31:02.853Z,89.86
2022-09-24T19:33:29.728Z,89.65
2022-09-24T19:35:58.832Z,89.49
2022-09-24T19:38:28.496Z,89.38
2022-09-24T19:40:57.259Z,89.98
2022-09-24T19:43:24.159Z,90.06
2022-09-24T19:45:55.942Z,90.54
2022-09-24T19:48:22.886Z,91.34
2022-09-24T19:50:49.653Z,91.77
2022-09-24T19:53:16.719Z,91.64
2022-09-24T19:55:44.659Z,93.02
2022-09-24T19:58:11.490Z,93.16
2022-09-24T20:00:39.069Z,92.78
2022-09-24T20:03:07.310Z,93.56
2022-09-24T20:05:34.151Z,93.04
2022-09-24T20:08:01.216Z,93.05
2022-09-24T20:10:28.006Z,92.86
2022-09-24T20:12:55.059Z,93.12
2022-09-24T20:15:22.550Z,92.81
2022-09-24T20:17:49.495Z,93.07
2022-09-24T20:20:18.672Z,93.64
2022-09-24T20:22:45.530Z,93.97
2022-09-24T20:25:13.653Z,94.09
2022-09-24T20:27:52.543Z,94.29
2022-09-24T20:30:22.094Z,93.65
2022-09-24T20:32:48.917Z,93.80
2022-09-24T20:35:17.331Z,92.72
2022-09-24T20:37:44.810Z,92.57
2022-09-24T20:40:12.176Z,92.37
2022-09-24T20:42:39.267Z,92.21
2022-09-24T20:45:07.632Z,92.29
2022-09-24T20:47:34.425Z,92.61
2022-09-24T20:50:01.483Z,92.22
2022-09-24T20:52:29.591Z,92.13
2022-09-24T20:54:57.408Z,92.35
2022-09-24T20:57:24.263Z,92.26
2022-09-24T20:59:51.490Z,92.36
2022-09-24T21:02:18.658Z,93.21
2022-09-24T21:04:45.495Z,93.53
2022-09-24T21:07:12.299Z,94.36
2022-09-24T21:09:40.490Z,94.30
2022-09-24T21:12:08.595Z,94.87
2022-09-24T21:14:38.012Z,94.29
2022-09-24T21:17:04.764Z,94.18
2022-09-24T21:19:34.269Z,93.18
2022-09-24T21:22:01.749Z,93.26
2022-09-24T21:24:31.408Z,93.66
2022-09-24T21:27:00.252Z,94.33
2022-09-24T21:29:27.172Z,94.68
2022-09-24T21:31:53.971Z,95.31
2022-09-24T21:34:21.130Z,94.84
2022-09-24T21:36:48.476Z,94.12
2022-09-24T21:39:17.588Z,94.80
2022-09-24T21:41:45.869Z,95.77
2022-09-24T21:44:14.544Z,94.35
2022-09-24T21:46:43.827Z,94.33
2022-09-24T21:49:11.558Z,93.69
2022-09-24T21:51:38.950Z,94.44
2022-09-24T21:54:08.577Z,95.05
2022-09-24T21:56:36.493Z,95.10
2022-09-24T21:59:24.435Z,96.20
2022-09-24T22:01:53.451Z,96.87
2022-09-24T22:04:20.856Z,97.92
2022-09-24T22:06:48.822Z,98.03
2022-09-24T22:09:16.094Z,97.35
2022-09-24T22:11:43.888Z,97.15
2022-09-24T22:14:11.781Z,96.71
2022-09-24T22:16:38.737Z,96.72
2022-09-24T22:19:07.835Z,96.55
2022-09-24T22:21:34.853Z,97.94
2022-09-24T22:24:02.079Z,98.77
2022-09-24T22:26:32.045Z,99.16
2022-09-24T22:28:59.521Z,99.82
2022-09-24T22:31:26.563Z,100.00
2022-09-24T22:34:11.904Z,100.00
2022-09-24T22:36:40.724Z,100.00
2022-09-24T22:39:08.288Z,100.00
2022-09-24T22:41:37.932Z,100.00
2022-09-24T22:44:05.844Z,100.00
2022-09-24T22:46:34.142Z,100.00
2022-09-24T22:49:01.500Z,100.00
2022-09-24T22:51:28.342Z,100.00
2022-09-24T22:53:57.044Z,100.00
2022-09-24T22:56:25.863Z,100.00
2022-09-24T22:58:54.505Z,100.00
2022-09-24T23:01:22.994Z,100.00
2022-09-24T23:03:51.463Z,100.00
2022-09-24T23:06:19.131Z,100.00
2022-09-24T23:08:46.232Z,100.00
2022-09-24T23:11:16.705Z,100.00
2022-09-24T23:13:45.774Z,100.00
2022-09-24T23:16:14.314Z,100.00
2022-09-24T23:18:42.900Z,100.00
2022-09-24T23:21:11.439Z,100.00
2022-09-24T23:23:38.527Z,100.00
2022-09-24T23:26:07.755Z,100.00
2022-09-24T23:28:36.604Z,100.00
2022-09-24T23:31:04.136Z,100.00
2022-09-24T23:33:31.999Z,100.00
2022-09-24T23:35:59.449Z,100.00
2022-09-24T23:38:26.654Z,100.00
2022-09-24T23:40:53.798Z,100.00
2022-09-24T23:43:21.306Z,100.00
2022-09-24T23:45:49.557Z,100.00
2022-09-24T23:48:16.820Z,100.00
2022-09-24T23:50:47.687Z,100.00
2022-09-24T23:53:15.929Z,100.00
2022-09-24T23:55:46.431Z,100.00
2022-09-24T23:58:17.036Z,100.00
